Time;durP1;ratioP1;P1;durP2;ratioP2;P2;SDS_P1;SDS_P2;PMS_P1;PMS_P2;Temp;Humidity;BMP_temperature;BMP_pressure;BME280_temperature;BME280_humidity;BME280_pressure;Samples;Min_cycle;Max_cycle;Signal;HPM_P1;HPM_P2
2023/09/11 00:01:16;;;;;;;20.98;18.75;;;;;;;;;;5124316;27;20051;-60
2023/09/11 00:03:43;;;;;;;31.45;21.20;;;;;;;;;;5120088;27;20949;-60
2023/09/11 00:06:10;;;;;;;25.05;20.52;;;;;;;;;;5122670;27;20059;-59
2023/09/11 00:08:36;;;;;;;22.73;19.20;;;;;;;;;;5124681;27;20658;-59
2023/09/11 00:11:03;;;;;;;23.52;20.15;;;;;;;;;;5122823;27;20052;-60
2023/09/11 00:13:31;;;;;;;26.42;19.80;;;;;;;;;;5119434;27;20514;-61
2023/09/11 00:15:57;;;;;;;23.83;19.55;;;;;;;;;;5127685;27;20532;-60
2023/09/11 00:18:24;;;;;;;28.25;19.65;;;;;;;;;;5126257;27;20062;-58
2023/09/11 00:20:51;;;;;;;29.73;21.00;;;;;;;;;;5125898;27;20047;-58
2023/09/11 00:23:18;;;;;;;27.05;20.40;;;;;;;;;;5119652;27;20051;-58
2023/09/11 00:25:44;;;;;;;26.90;20.33;;;;;;;;;;5118705;27;20051;-59
2023/09/11 00:28:10;;;;;;;27.58;19.65;;;;;;;;;;5114885;27;20135;-57
2023/09/11 00:30:37;;;;;;;26.67;19.52;;;;;;;;;;5125605;27;20180;-60
2023/09/11 00:33:04;;;;;;;25.05;20.15;;;;;;;;;;5127224;27;20047;-60
2023/09/11 00:35:31;;;;;;;27.67;21.08;;;;;;;;;;5120917;27;20048;-57
2023/09/11 00:37:58;;;;;;;25.30;20.52;;;;;;;;;;5123202;27;20111;-59
2023/09/11 00:40:24;;;;;;;27.10;20.15;;;;;;;;;;5126252;27;20081;-59
2023/09/11 00:42:50;;;;;;;24.17;20.33;;;;;;;;;;5124956;27;20051;-59
2023/09/11 00:45:17;;;;;;;31.27;20.83;;;;;;;;;;5115758;27;20514;-59
2023/09/11 00:47:45;;;;;;;27.92;20.83;;;;;;;;;;5119335;27;20146;-58
2023/09/11 00:50:13;;;;;;;22.45;19.02;;;;;;;;;;5123411;27;20047;-59
2023/09/11 00:52:40;;;;;;;27.25;20.88;;;;;;;;;;5118626;27;20059;-59
2023/09/11 00:55:07;;;;;;;26.58;21.55;;;;;;;;;;5126062;27;20051;-60
2023/09/11 00:57:33;;;;;;;32.45;20.85;;;;;;;;;;5127133;27;20059;-58
2023/09/11 01:00:01;;;;;;;27.58;21.05;;;;;;;;;;5114107;27;20047;-58
2023/09/11 01:02:27;;;;;;;27.23;21.48;;;;;;;;;;5124797;27;20216;-59
2023/09/11 01:04:54;;;;;;;25.10;20.77;;;;;;;;;;5123549;27;20050;-60
2023/09/11 01:07:20;;;;;;;30.50;21.92;;;;;;;;;;5121022;27;20063;-60
2023/09/11 01:09:47;;;;;;;23.48;20.98;;;;;;;;;;5123621;27;20539;-58
2023/09/11 01:12:14;;;;;;;24.23;19.98;;;;;;;;;;5122036;27;20058;-59
2023/09/11 01:14:40;;;;;;;23.83;21.05;;;;;;;;;;5122859;27;20060;-59
2023/09/11 01:17:22;;;;;;;28.17;21.55;;;;;;;;;;5119974;27;20063;-59
2023/09/11 01:19:55;;;;;;;30.05;21.50;;;;;;;;;;5115878;27;20155;-57
2023/09/11 01:22:31;;;;;;;27.15;21.45;;;;;;;;;;5122790;27;20052;-57
2023/09/11 01:25:07;;;;;;;25.23;21.45;;;;;;;;;;5122621;27;20072;-59
2023/09/11 01:27:57;;;;;;;27.25;21.55;;;;;;;;;;5115999;27;20048;-59
2023/09/11 01:30:24;;;;;;;31.58;21.02;;;;;;;;;;5111770;27;20048;-57
2023/09/11 01:32:50;;;;;;;24.25;20.27;;;;;;;;;;5124043;27;20518;-60
2023/09/11 01:35:17;;;;;;;27.45;21.58;;;;;;;;;;5122621;27;20051;-59
2023/09/11 01:37:43;;;;;;;27.63;21.50;;;;;;;;;;5121011;27;20051;-59
2023/09/11 01:40:10;;;;;;;25.65;21.02;;;;;;;;;;5123060;27;20508;-59
2023/09/11 01:42:48;;;;;;;25.60;21.38;;;;;;;;;;5095814;27;20052;-57
2023/09/11 01:45:15;;;;;;;28.30;21.23;;;;;;;;;;5123789;27;20047;-59
2023/09/11 01:47:46;;;;;;;30.05;21.45;;;;;;;;;;5117083;27;20051;-57
2023/09/11 01:50:17;;;;;;;25.90;21.20;;;;;;;;;;5122628;27;20561;-60
2023/09/11 01:52:45;;;;;;;24.05;20.92;;;;;;;;;;5121087;27;20047;-59
2023/09/11 01:55:12;;;;;;;30.33;21.38;;;;;;;;;;5123049;27;20139;-59
2023/09/11 01:57:38;;;;;;;28.27;20.77;;;;;;;;;;5122707;27;20120;-59
2023/09/11 02:00:08;;;;;;;24.98;20.63;;;;;;;;;;5120231;27;20052;-58
2023/09/11 02:02:34;;;;;;;30.63;21.83;;;;;;;;;;5122385;27;20520;-57
2023/09/11 02:05:02;;;;;;;28.83;21.35;;;;;;;;;;5122721;27;20048;-58
2023/09/11 02:07:28;;;;;;;31.10;22.15;;;;;;;;;;5122087;27;20059;-57
2023/09/11 02:09:55;;;;;;;27.15;21.27;;;;;;;;;;5122810;27;20104;-59
2023/09/11 02:12:22;;;;;;;28.98;21.48;;;;;;;;;;5105583;27;20079;-58
2023/09/11 02:14:48;;;;;;;28.13;21.67;;;;;;;;;;5121969;27;20066;-59
2023/09/11 02:17:15;;;;;;;26.48;21.15;;;;;;;;;;5124686;27;20533;-59
2023/09/11 02:19:42;;;;;;;29.67;21.42;;;;;;;;;;5125670;27;20047;-60
2023/09/11 02:22:09;;;;;;;30.33;22.25;;;;;;;;;;5125080;27;20506;-59
2023/09/11 02:24:36;;;;;;;28.13;21.17;;;;;;;;;;5125462;27;20051;-60
2023/09/11 02:27:02;;;;;;;25.50;21.73;;;;;;;;;;5126436;27;20048;-58
2023/09/11 02:29:29;;;;;;;27.75;23.58;;;;;;;;;;5126798;27;20047;-60
2023/09/11 02:31:55;;;;;;;30.42;24.73;;;;;;;;;;5128928;27;20051;-60
2023/09/11 02:34:22;;;;;;;32.85;22.92;;;;;;;;;;5124987;27;20170;-58
2023/09/11 02:36:48;;;;;;;30.25;23.02;;;;;;;;;;5124319;27;20056;-59
2023/09/11 02:39:14;;;;;;;27.48;23.02;;;;;;;;;;5125897;27;20051;-58
2023/09/11 02:41:41;;;;;;;29.60;23.17;;;;;;;;;;5131178;27;20146;-58
2023/09/11 02:44:07;;;;;;;30.58;22.48;;;;;;;;;;5125920;27;20067;-58
2023/09/11 02:46:34;;;;;;;29.17;22.67;;;;;;;;;;5125212;27;20159;-59
2023/09/11 02:49:00;;;;;;;31.08;22.23;;;;;;;;;;5125831;27;20139;-59
2023/09/11 02:51:28;;;;;;;28.23;22.50;;;;;;;;;;5126103;27;20083;-56
2023/09/11 02:53:55;;;;;;;29.77;22.55;;;;;;;;;;5125434;27;20043;-59
2023/09/11 02:56:21;;;;;;;27.90;21.75;;;;;;;;;;5130926;27;20053;-58
2023/09/11 02:58:48;;;;;;;27.00;22.83;;;;;;;;;;5125655;27;20498;-59
2023/09/11 03:01:14;;;;;;;29.20;23.85;;;;;;;;;;5127678;27;20050;-59
2023/09/11 03:03:40;;;;;;;29.73;23.25;;;;;;;;;;5125021;27;20058;-58
2023/09/11 03:06:07;;;;;;;29.80;22.75;;;;;;;;;;5124188;27;20425;-58
2023/09/11 03:08:33;;;;;;;25.70;20.67;;;;;;;;;;5125308;27;20172;-58
2023/09/11 03:11:05;;;;;;;26.08;21.00;;;;;;;;;;5106164;27;20052;-58
2023/09/11 03:13:32;;;;;;;28.38;21.00;;;;;;;;;;5127288;27;20052;-58
2023/09/11 03:16:07;;;;;;;26.60;21.15;;;;;;;;;;5115998;27;20048;-56
2023/09/11 03:18:34;;;;;;;24.98;20.98;;;;;;;;;;5125168;27;20052;-57
2023/09/11 03:21:05;;;;;;;30.95;22.60;;;;;;;;;;5124985;27;20056;-58
2023/09/11 03:23:32;;;;;;;31.80;21.80;;;;;;;;;;5122577;27;20587;-57
2023/09/11 03:25:58;;;;;;;29.55;21.83;;;;;;;;;;5123872;27;20055;-58
2023/09/11 03:28:28;;;;;;;26.67;20.70;;;;;;;;;;5123888;27;20051;-55
2023/09/11 03:30:55;;;;;;;24.00;20.92;;;;;;;;;;5105849;27;20523;-57
2023/09/11 03:33:21;;;;;;;35.25;21.63;;;;;;;;;;5121550;27;20055;-58
2023/09/11 03:35:48;;;;;;;26.38;22.45;;;;;;;;;;5121192;27;20142;-56
2023/09/11 03:38:15;;;;;;;28.95;20.92;;;;;;;;;;5129491;27;20052;-57
2023/09/11 03:40:45;;;;;;;27.80;21.08;;;;;;;;;;5106224;27;20059;-57
2023/09/11 03:43:11;;;;;;;29.92;21.63;;;;;;;;;;5136602;27;20150;-55
2023/09/11 03:45:38;;;;;;;27.70;21.90;;;;;;;;;;5105171;27;20058;-54
2023/09/11 03:48:04;;;;;;;25.65;21.33;;;;;;;;;;5129573;27;20102;-57
2023/09/11 03:50:31;;;;;;;26.65;20.98;;;;;;;;;;5127104;27;20063;-57
2023/09/11 03:52:57;;;;;;;26.55;21.90;;;;;;;;;;5118393;27;20082;-56
2023/09/11 03:55:24;;;;;;;27.25;23.52;;;;;;;;;;5126899;27;20073;-58
2023/09/11 03:57:50;;;;;;;25.58;21.20;;;;;;;;;;5126686;27;20101;-55
2023/09/11 04:00:17;;;;;;;29.48;20.50;;;;;;;;;;5119934;27;20052;-57
2023/09/11 04:02:43;;;;;;;25.00;20.55;;;;;;;;;;5121466;27;20055;-57
2023/09/11 04:05:09;;;;;;;27.48;21.38;;;;;;;;;;5125142;27;20101;-56
2023/09/11 04:07:36;;;;;;;23.27;20.38;;;;;;;;;;5123813;27;20052;-55
2023/09/11 04:10:02;;;;;;;23.45;20.52;;;;;;;;;;5124255;27;20047;-57
2023/09/11 04:12:29;;;;;;;25.00;20.45;;;;;;;;;;5130609;27;20074;-57
2023/09/11 04:14:55;;;;;;;26.42;20.67;;;;;;;;;;5122850;27;20056;-57
2023/09/11 04:17:21;;;;;;;26.17;20.75;;;;;;;;;;5124369;27;20130;-55
2023/09/11 04:19:48;;;;;;;29.83;21.60;;;;;;;;;;5124067;27;20140;-57
2023/09/11 04:22:14;;;;;;;27.85;20.42;;;;;;;;;;5117971;27;20064;-55
2023/09/11 04:24:41;;;;;;;29.15;22.20;;;;;;;;;;5124810;27;20813;-56
2023/09/11 04:27:07;;;;;;;29.52;20.73;;;;;;;;;;5105355;27;20895;-55
2023/09/11 04:29:34;;;;;;;29.10;20.85;;;;;;;;;;5120707;27;20531;-57
2023/09/11 04:32:01;;;;;;;30.00;21.23;;;;;;;;;;5125178;27;20050;-55
2023/09/11 04:34:27;;;;;;;32.45;21.45;;;;;;;;;;5125518;27;20059;-56
2023/09/11 04:36:54;;;;;;;32.28;21.98;;;;;;;;;;5125474;27;20059;-56
2023/09/11 04:39:23;;;;;;;28.95;22.85;;;;;;;;;;5124161;27;20051;-57
2023/09/11 04:41:50;;;;;;;27.92;22.13;;;;;;;;;;5122820;27;20062;-56
2023/09/11 04:44:16;;;;;;;28.70;22.48;;;;;;;;;;5112846;27;20056;-57
2023/09/11 04:46:45;;;;;;;31.17;22.25;;;;;;;;;;5132267;27;20562;-55
2023/09/11 04:49:11;;;;;;;27.77;22.75;;;;;;;;;;5125189;27;20569;-58
2023/09/11 04:51:37;;;;;;;29.23;23.25;;;;;;;;;;5125165;27;20521;-56
2023/09/11 04:54:04;;;;;;;29.75;22.65;;;;;;;;;;5125796;27;20140;-56
2023/09/11 04:56:31;;;;;;;24.92;22.23;;;;;;;;;;5126995;27;20113;-57
2023/09/11 04:58:57;;;;;;;32.00;23.52;;;;;;;;;;5123699;27;20663;-55
2023/09/11 05:01:24;;;;;;;30.08;22.27;;;;;;;;;;5120612;27;20108;-56
2023/09/11 05:03:50;;;;;;;28.98;21.63;;;;;;;;;;5124038;27;20058;-55
2023/09/11 05:06:17;;;;;;;27.70;21.48;;;;;;;;;;5124687;27;20058;-57
2023/09/11 05:08:43;;;;;;;27.98;21.95;;;;;;;;;;5130351;27;20055;-55
2023/09/11 05:11:30;;;;;;;27.55;21.50;;;;;;;;;;5125873;27;20518;-58
2023/09/11 05:13:56;;;;;;;26.52;22.65;;;;;;;;;;5116053;27;20072;-58
2023/09/11 05:16:23;;;;;;;31.90;21.30;;;;;;;;;;5130466;27;20059;-56
2023/09/11 05:18:49;;;;;;;32.60;21.90;;;;;;;;;;5123778;27;20043;-57
2023/09/11 05:21:16;;;;;;;24.45;21.65;;;;;;;;;;5125471;27;20138;-56
2023/09/11 05:23:42;;;;;;;24.20;21.60;;;;;;;;;;5125062;27;20513;-56
2023/09/11 05:26:09;;;;;;;26.45;20.80;;;;;;;;;;5124668;27;20051;-55
2023/09/11 05:28:36;;;;;;;24.63;20.63;;;;;;;;;;5125054;27;20136;-57
2023/09/11 05:31:03;;;;;;;28.67;21.33;;;;;;;;;;5123652;27;20063;-58
2023/09/11 05:33:29;;;;;;;27.40;21.13;;;;;;;;;;5123638;27;20120;-57
2023/09/11 05:35:56;;;;;;;23.67;19.92;;;;;;;;;;5122810;27;20153;-60
2023/09/11 05:38:22;;;;;;;24.67;20.23;;;;;;;;;;5123682;27;20130;-59
2023/09/11 05:40:49;;;;;;;30.55;19.95;;;;;;;;;;5124790;27;20051;-59
2023/09/11 05:43:15;;;;;;;25.23;19.38;;;;;;;;;;5121304;27;20801;-59
2023/09/11 05:45:41;;;;;;;22.90;19.80;;;;;;;;;;5105019;27;20048;-58
2023/09/11 05:48:11;;;;;;;27.00;19.42;;;;;;;;;;5122783;27;20055;-58
2023/09/11 05:50:38;;;;;;;26.30;19.35;;;;;;;;;;5123106;27;20055;-58
2023/09/11 05:53:06;;;;;;;27.27;18.33;;;;;;;;;;5126693;27;20058;-59
2023/09/11 05:55:33;;;;;;;26.88;19.73;;;;;;;;;;5126864;27;20051;-57
2023/09/11 05:58:00;;;;;;;26.27;20.42;;;;;;;;;;5125730;27;20052;-60
2023/09/11 06:00:27;;;;;;;23.63;19.17;;;;;;;;;;5125123;27;20047;-59
2023/09/11 06:02:53;;;;;;;26.15;18.85;;;;;;;;;;5123794;27;20055;-60
2023/09/11 06:05:20;;;;;;;27.33;19.10;;;;;;;;;;5126829;27;20059;-58
2023/09/11 06:07:46;;;;;;;23.88;18.58;;;;;;;;;;5102582;27;20159;-59
2023/09/11 06:10:13;;;;;;;20.60;18.20;;;;;;;;;;5124063;27;20062;-59
2023/09/11 06:12:39;;;;;;;24.15;18.67;;;;;;;;;;5124392;27;20051;-58
2023/09/11 06:15:06;;;;;;;23.85;18.52;;;;;;;;;;5125665;27;20467;-58
2023/09/11 06:17:32;;;;;;;24.02;17.55;;;;;;;;;;5126145;27;20047;-59
2023/09/11 06:20:10;;;;;;;22.65;18.10;;;;;;;;;;5125541;27;20051;-59
2023/09/11 06:22:37;;;;;;;23.70;17.33;;;;;;;;;;5125177;27;20047;-57
2023/09/11 06:25:04;;;;;;;24.05;16.95;;;;;;;;;;5124751;27;20102;-58
2023/09/11 06:27:31;;;;;;;19.50;16.15;;;;;;;;;;5125103;27;20066;-57
2023/09/11 06:29:57;;;;;;;22.70;15.10;;;;;;;;;;5125222;27;20518;-58
2023/09/11 06:32:24;;;;;;;21.65;15.45;;;;;;;;;;5125421;27;20051;-58
2023/09/11 06:34:51;;;;;;;17.85;15.05;;;;;;;;;;5108957;27;20143;-60
2023/09/11 06:37:17;;;;;;;16.55;13.60;;;;;;;;;;5125265;27;20059;-60
2023/09/11 06:39:44;;;;;;;16.95;13.77;;;;;;;;;;5126164;27;20102;-60
2023/09/11 06:42:20;;;;;;;25.80;13.93;;;;;;;;;;5124326;27;20056;-59
2023/09/11 06:44:47;;;;;;;24.02;12.88;;;;;;;;;;5126439;27;20059;-58
2023/09/11 06:47:13;;;;;;;16.77;12.80;;;;;;;;;;5126477;27;20134;-59
2023/09/11 06:49:40;;;;;;;19.75;12.60;;;;;;;;;;5125539;27;20574;-59
2023/09/11 06:52:06;;;;;;;20.23;11.75;;;;;;;;;;5125934;27;20067;-59
2023/09/11 06:54:32;;;;;;;18.48;11.55;;;;;;;;;;5126107;27;20047;-59
2023/09/11 06:57:01;;;;;;;17.30;11.38;;;;;;;;;;5126000;27;20051;-60
2023/09/11 06:59:27;;;;;;;14.88;11.00;;;;;;;;;;5125345;27;20051;-60
2023/09/11 07:01:54;;;;;;;17.33;11.77;;;;;;;;;;5126680;27;20055;-58
2023/09/11 07:04:20;;;;;;;20.23;12.43;;;;;;;;;;5122167;27;20101;-60
2023/09/11 07:06:48;;;;;;;12.93;9.88;;;;;;;;;;5103011;27;20056;-57
2023/09/11 07:09:14;;;;;;;22.95;12.93;;;;;;;;;;5126243;27;20063;-60
2023/09/11 07:11:40;;;;;;;20.65;11.65;;;;;;;;;;5123107;27;20466;-58
2023/09/11 07:14:12;;;;;;;18.05;11.85;;;;;;;;;;5122963;27;20062;-59
2023/09/11 07:16:39;;;;;;;24.52;11.77;;;;;;;;;;5122357;27;20052;-59
2023/09/11 07:19:05;;;;;;;20.20;11.82;;;;;;;;;;5126068;27;20539;-60
2023/09/11 07:21:32;;;;;;;16.02;10.88;;;;;;;;;;5125149;27;20458;-61
2023/09/11 07:23:58;;;;;;;19.70;11.98;;;;;;;;;;5124122;27;20052;-58
2023/09/11 07:26:25;;;;;;;18.02;11.10;;;;;;;;;;5107210;27;20546;-59
2023/09/11 07:28:52;;;;;;;24.75;11.95;;;;;;;;;;5120092;27;20144;-60
2023/09/11 07:31:18;;;;;;;20.20;11.70;;;;;;;;;;5116877;27;20141;-60
2023/09/11 07:33:45;;;;;;;17.85;12.55;;;;;;;;;;5122588;27;20048;-58
2023/09/11 07:36:12;;;;;;;16.48;11.82;;;;;;;;;;5117100;27;20173;-56
2023/09/11 07:38:44;;;;;;;19.08;12.60;;;;;;;;;;5108364;27;20052;-59
2023/09/11 07:41:11;;;;;;;16.52;12.27;;;;;;;;;;5120159;27;20051;-57
2023/09/11 07:43:38;;;;;;;18.60;12.65;;;;;;;;;;5124307;27;20529;-59
2023/09/11 07:46:04;;;;;;;18.67;11.63;;;;;;;;;;5115537;27;20110;-59
2023/09/11 07:48:31;;;;;;;16.45;12.43;;;;;;;;;;5119936;27;20092;-60
2023/09/11 07:50:57;;;;;;;21.23;12.63;;;;;;;;;;5116125;27;20526;-59
2023/09/11 07:53:24;;;;;;;16.85;11.48;;;;;;;;;;5105587;27;20059;-59
2023/09/11 07:55:50;;;;;;;17.13;12.32;;;;;;;;;;5099192;28;20737;-60
2023/09/11 07:58:17;;;;;;;15.07;12.15;;;;;;;;;;5122480;27;20139;-59
2023/09/11 08:00:43;;;;;;;20.10;12.45;;;;;;;;;;5117418;27;20097;-59
2023/09/11 08:03:10;;;;;;;16.10;11.35;;;;;;;;;;5121923;27;20097;-56
2023/09/11 08:05:37;;;;;;;24.52;11.85;;;;;;;;;;5115451;27;20438;-58
2023/09/11 08:08:04;;;;;;;17.58;11.70;;;;;;;;;;5105004;27;20067;-56
2023/09/11 08:10:31;;;;;;;16.73;11.65;;;;;;;;;;5121882;27;20042;-59
2023/09/11 08:12:57;;;;;;;15.05;12.02;;;;;;;;;;5124562;27;20138;-59
2023/09/11 08:15:24;;;;;;;18.77;11.98;;;;;;;;;;5121167;27;20059;-60
2023/09/11 08:17:50;;;;;;;13.18;10.63;;;;;;;;;;5124045;27;20146;-55
2023/09/11 08:20:17;;;;;;;15.93;10.48;;;;;;;;;;5095778;27;20052;-57
2023/09/11 08:22:44;;;;;;;21.58;11.23;;;;;;;;;;5117099;27;20055;-60
2023/09/11 08:25:11;;;;;;;18.15;9.38;;;;;;;;;;5114368;27;20058;-60
2023/09/11 08:27:37;;;;;;;10.88;9.27;;;;;;;;;;5124021;27;20051;-59
2023/09/11 08:30:06;;;;;;;11.80;8.30;;;;;;;;;;5115472;27;20051;-59
2023/09/11 08:32:37;;;;;;;13.48;9.35;;;;;;;;;;5118491;27;20083;-59
2023/09/11 08:35:04;;;;;;;14.35;9.07;;;;;;;;;;5119771;27;20048;-60
2023/09/11 08:37:31;;;;;;;17.52;9.77;;;;;;;;;;5117009;27;20540;-59
2023/09/11 08:39:57;;;;;;;13.30;9.07;;;;;;;;;;5122262;27;20052;-59
2023/09/11 08:42:24;;;;;;;13.10;8.88;;;;;;;;;;5115320;27;20146;-59
2023/09/11 08:44:50;;;;;;;13.32;8.50;;;;;;;;;;5123733;27;20052;-59
2023/09/11 08:47:19;;;;;;;11.88;8.43;;;;;;;;;;5122095;27;20090;-56
2023/09/11 08:49:51;;;;;;;10.10;7.38;;;;;;;;;;5122756;27;20048;-60
2023/09/11 08:52:18;;;;;;;12.10;8.20;;;;;;;;;;5121467;27;20135;-60
2023/09/11 08:54:48;;;;;;;14.95;8.25;;;;;;;;;;5114122;27;20056;-58
2023/09/11 08:57:15;;;;;;;11.77;7.78;;;;;;;;;;5116385;27;20502;-60
2023/09/11 08:59:46;;;;;;;14.45;8.38;;;;;;;;;;5123050;27;20159;-59
2023/09/11 09:02:13;;;;;;;10.23;7.40;;;;;;;;;;5121472;27;20051;-59
2023/09/11 09:04:43;;;;;;;14.68;7.82;;;;;;;;;;5114583;27;21683;-58
2023/09/11 09:07:10;;;;;;;13.23;8.63;;;;;;;;;;5108811;27;20568;-58
2023/09/11 09:09:37;;;;;;;14.63;9.23;;;;;;;;;;5123477;27;20143;-59
2023/09/11 09:12:04;;;;;;;11.43;8.45;;;;;;;;;;5122424;27;20059;-59
2023/09/11 09:14:32;;;;;;;10.40;7.72;;;;;;;;;;5120036;27;20477;-59
2023/09/11 09:16:59;;;;;;;14.52;7.35;;;;;;;;;;5102144;27;20446;-59
2023/09/11 09:19:26;;;;;;;9.27;7.00;;;;;;;;;;5121493;27;20086;-59
2023/09/11 09:22:05;;;;;;;15.52;7.20;;;;;;;;;;5121149;27;20056;-60
2023/09/11 09:24:36;;;;;;;10.15;6.38;;;;;;;;;;5098120;27;20426;-58
2023/09/11 09:27:04;;;;;;;12.35;7.57;;;;;;;;;;5116618;27;20051;-58
2023/09/11 09:29:35;;;;;;;10.23;7.05;;;;;;;;;;5113751;27;20602;-60
2023/09/11 09:32:03;;;;;;;9.45;6.85;;;;;;;;;;5119573;27;20052;-58
2023/09/11 09:34:31;;;;;;;11.23;6.60;;;;;;;;;;5125499;27;20075;-60
2023/09/11 09:36:58;;;;;;;9.43;6.35;;;;;;;;;;5108105;27;20422;-59
2023/09/11 09:39:28;;;;;;;11.98;6.20;;;;;;;;;;5115081;27;20056;-57
2023/09/11 09:41:55;;;;;;;13.00;6.22;;;;;;;;;;5102632;27;20198;-57
2023/09/11 09:44:32;;;;;;;10.85;6.22;;;;;;;;;;5114944;27;22329;-59
2023/09/11 09:47:19;;;;;;;10.52;5.70;;;;;;;;;;5112805;27;20138;-59
2023/09/11 09:49:47;;;;;;;9.82;6.22;;;;;;;;;;5113786;27;20163;-60
2023/09/11 09:52:14;;;;;;;12.48;5.57;;;;;;;;;;5113087;27;20058;-59
2023/09/11 09:54:42;;;;;;;11.05;7.07;;;;;;;;;;5123807;27;20052;-59
2023/09/11 09:57:09;;;;;;;9.35;6.10;;;;;;;;;;5128061;27;20086;-58
2023/09/11 09:59:36;;;;;;;11.45;6.57;;;;;;;;;;5123174;27;20077;-57
2023/09/11 10:02:02;;;;;;;9.70;6.63;;;;;;;;;;5115256;27;20052;-60
2023/09/11 10:04:31;;;;;;;23.45;6.78;;;;;;;;;;5124618;27;20059;-57
2023/09/11 10:06:59;;;;;;;10.10;5.57;;;;;;;;;;5102077;27;20526;-59
2023/09/11 10:09:25;;;;;;;10.57;6.30;;;;;;;;;;5126295;27;20242;-59
2023/09/11 10:11:51;;;;;;;8.57;6.13;;;;;;;;;;5130440;27;20054;-59
2023/09/11 10:14:18;;;;;;;7.13;5.63;;;;;;;;;;5122962;27;20063;-60
2023/09/11 10:16:46;;;;;;;11.45;5.75;;;;;;;;;;5121734;27;20047;-58
2023/09/11 10:19:12;;;;;;;16.70;7.47;;;;;;;;;;5121293;27;20052;-59
2023/09/11 10:21:38;;;;;;;11.35;6.53;;;;;;;;;;5124247;27;20406;-60
2023/09/11 10:24:06;;;;;;;11.40;6.43;;;;;;;;;;5122664;27;20052;-59
2023/09/11 10:26:38;;;;;;;9.07;6.25;;;;;;;;;;5119627;27;20156;-60
2023/09/11 10:29:10;;;;;;;10.63;6.55;;;;;;;;;;5123696;27;20509;-56
2023/09/11 10:31:43;;;;;;;5.40;4.90;;;;;;;;;;5127674;27;20056;-57
2023/09/11 10:34:09;;;;;;;7.32;4.60;;;;;;;;;;5125323;27;20104;-59
2023/09/11 10:36:42;;;;;;;11.50;4.88;;;;;;;;;;5133138;27;20060;-57
2023/09/11 10:39:10;;;;;;;11.07;4.93;;;;;;;;;;5128667;27;20434;-59
2023/09/11 10:41:36;;;;;;;8.38;4.88;;;;;;;;;;5125073;27;20130;-58
2023/09/11 10:44:03;;;;;;;6.53;4.80;;;;;;;;;;5126818;27;20546;-59
2023/09/11 10:46:31;;;;;;;11.57;5.82;;;;;;;;;;5126209;27;20048;-58
2023/09/11 10:48:58;;;;;;;10.98;5.95;;;;;;;;;;5124146;27;20613;-59
2023/09/11 10:51:26;;;;;;;8.13;5.03;;;;;;;;;;5105797;27;20064;-59
2023/09/11 10:53:52;;;;;;;6.85;4.47;;;;;;;;;;5125134;27;20138;-58
2023/09/11 10:56:19;;;;;;;9.85;5.18;;;;;;;;;;5122883;27;20056;-58
2023/09/11 10:58:45;;;;;;;6.90;4.50;;;;;;;;;;5122041;27;20146;-59
2023/09/11 11:01:16;;;;;;;6.35;3.90;;;;;;;;;;5118362;27;20055;-59
2023/09/11 11:03:42;;;;;;;7.80;4.20;;;;;;;;;;5123007;27;20133;-59
2023/09/11 11:06:10;;;;;;;4.35;3.72;;;;;;;;;;5124737;27;20715;-61
2023/09/11 11:08:38;;;;;;;6.57;4.10;;;;;;;;;;5124537;27;20056;-59
2023/09/11 11:11:16;;;;;;;5.57;4.13;;;;;;;;;;5125490;27;20100;-59
2023/09/11 11:14:02;;;;;;;7.63;4.13;;;;;;;;;;5123405;27;20064;-56
2023/09/11 11:16:29;;;;;;;6.03;4.10;;;;;;;;;;5123856;27;20051;-59
2023/09/11 11:18:57;;;;;;;5.93;4.00;;;;;;;;;;5123607;27;20500;-58
2023/09/11 11:21:23;;;;;;;11.70;4.30;;;;;;;;;;5125551;27;20082;-59
2023/09/11 11:23:54;;;;;;;9.65;4.13;;;;;;;;;;5122817;27;20097;-58
2023/09/11 11:26:23;;;;;;;6.45;3.80;;;;;;;;;;5125595;27;20056;-58
2023/09/11 11:28:50;;;;;;;9.23;4.28;;;;;;;;;;5124298;27;20110;-60
2023/09/11 11:31:20;;;;;;;9.88;3.72;;;;;;;;;;5119247;27;20051;-58
2023/09/11 11:33:47;;;;;;;7.88;4.18;;;;;;;;;;5123959;27;20476;-58
2023/09/11 11:36:15;;;;;;;8.15;3.80;;;;;;;;;;5123390;27;20333;-58
2023/09/11 11:38:42;;;;;;;7.38;4.00;;;;;;;;;;5123737;27;20056;-59
2023/09/11 11:41:10;;;;;;;8.55;3.95;;;;;;;;;;5121576;27;20528;-59
2023/09/11 11:43:36;;;;;;;8.10;4.07;;;;;;;;;;5122435;27;20051;-59
2023/09/11 11:46:06;;;;;;;5.05;3.50;;;;;;;;;;5121988;27;20426;-61
2023/09/11 11:48:33;;;;;;;6.43;3.58;;;;;;;;;;5126030;27;20055;-58
2023/09/11 11:51:00;;;;;;;6.15;3.40;;;;;;;;;;5124011;27;20517;-59
2023/09/11 11:53:26;;;;;;;5.35;3.30;;;;;;;;;;5108294;27;20064;-61
2023/09/11 11:55:56;;;;;;;5.82;3.65;;;;;;;;;;5122813;27;20054;-59
2023/09/11 11:58:23;;;;;;;8.25;3.65;;;;;;;;;;5121013;27;21014;-59
2023/09/11 12:00:56;;;;;;;4.55;3.33;;;;;;;;;;5118925;27;20539;-60
2023/09/11 12:03:23;;;;;;;4.28;2.92;;;;;;;;;;5121916;27;20055;-59
2023/09/11 12:05:50;;;;;;;4.65;3.47;;;;;;;;;;5120905;27;20051;-47
2023/09/11 12:08:16;;;;;;;8.95;4.20;;;;;;;;;;5122616;27;20048;-61
2023/09/11 12:10:44;;;;;;;7.68;3.33;;;;;;;;;;5122999;27;20044;-58
2023/09/11 12:13:13;;;;;;;4.80;2.97;;;;;;;;;;5122782;27;20435;-59
2023/09/11 12:15:40;;;;;;;4.05;3.45;;;;;;;;;;5122305;27;20909;-60
2023/09/11 12:18:06;;;;;;;4.20;3.08;;;;;;;;;;5120469;27;20594;-59
2023/09/11 12:20:33;;;;;;;4.63;3.70;;;;;;;;;;5121665;27;20109;-59
2023/09/11 12:23:01;;;;;;;5.70;3.30;;;;;;;;;;5123570;27;20101;-59
2023/09/11 12:25:27;;;;;;;7.15;3.28;;;;;;;;;;5124018;27;20060;-60
2023/09/11 12:27:54;;;;;;;8.52;2.85;;;;;;;;;;5123896;27;20510;-58
2023/09/11 12:30:20;;;;;;;5.30;3.15;;;;;;;;;;5121007;27;20052;-59
2023/09/11 12:32:49;;;;;;;11.63;3.90;;;;;;;;;;5123228;27;20047;-58
2023/09/11 12:35:29;;;;;;;6.43;3.58;;;;;;;;;;5120631;27;20477;-59
2023/09/11 12:37:56;;;;;;;6.13;3.65;;;;;;;;;;5123396;27;20534;-58
2023/09/11 12:40:22;;;;;;;5.50;3.30;;;;;;;;;;5111028;27;20055;-59
2023/09/11 12:42:49;;;;;;;10.77;4.65;;;;;;;;;;5103355;27;20059;-58
2023/09/11 12:45:15;;;;;;;8.80;3.60;;;;;;;;;;5122871;27;20064;-60
2023/09/11 12:47:42;;;;;;;7.70;3.95;;;;;;;;;;5121292;27;20086;-60
2023/09/11 12:50:08;;;;;;;6.75;3.97;;;;;;;;;;5122591;27;20109;-61
2023/09/11 12:52:35;;;;;;;4.47;3.63;;;;;;;;;;5122642;27;20839;-59
2023/09/11 12:55:02;;;;;;;6.68;4.30;;;;;;;;;;5122231;27;20054;-59
2023/09/11 12:57:29;;;;;;;8.48;4.10;;;;;;;;;;5121981;27;20051;-59
2023/09/11 12:59:56;;;;;;;7.35;5.30;;;;;;;;;;5116570;27;20195;-59
2023/09/11 13:02:23;;;;;;;6.55;4.68;;;;;;;;;;5117732;27;20058;-59
2023/09/11 13:04:49;;;;;;;9.05;4.40;;;;;;;;;;5127840;27;20055;-60
2023/09/11 13:07:17;;;;;;;9.13;4.38;;;;;;;;;;5126751;27;20570;-59
2023/09/11 13:09:43;;;;;;;6.55;4.93;;;;;;;;;;5129464;27;20058;-60
2023/09/11 13:12:10;;;;;;;10.98;5.57;;;;;;;;;;5122022;27;20055;-59
2023/09/11 13:14:36;;;;;;;12.82;5.75;;;;;;;;;;5122641;27;20064;-60
2023/09/11 13:17:03;;;;;;;8.45;5.60;;;;;;;;;;5126056;27;20055;-58
2023/09/11 13:19:30;;;;;;;9.98;5.78;;;;;;;;;;5121622;27;20518;-60
2023/09/11 13:21:57;;;;;;;9.80;5.45;;;;;;;;;;5118482;27;20059;-58
2023/09/11 13:24:24;;;;;;;8.85;5.20;;;;;;;;;;5121518;27;20048;-59
2023/09/11 13:26:50;;;;;;;6.05;4.78;;;;;;;;;;5100218;27;20059;-61
2023/09/11 13:29:17;;;;;;;7.20;5.50;;;;;;;;;;5119099;27;20056;-63
2023/09/11 13:31:43;;;;;;;8.55;4.88;;;;;;;;;;5121188;27;20565;-58
2023/09/11 13:34:10;;;;;;;9.70;5.40;;;;;;;;;;5122321;27;20518;-59
2023/09/11 13:36:37;;;;;;;8.55;5.97;;;;;;;;;;5103572;27;20047;-60
2023/09/11 13:39:04;;;;;;;11.10;6.40;;;;;;;;;;5122378;27;20330;-59
2023/09/11 13:41:31;;;;;;;14.10;7.68;;;;;;;;;;5121048;27;20130;-60
2023/09/11 13:43:58;;;;;;;10.25;7.15;;;;;;;;;;5120172;27;20425;-59
2023/09/11 13:46:24;;;;;;;14.07;8.32;;;;;;;;;;5121516;27;20204;-56
2023/09/11 13:48:51;;;;;;;11.60;7.72;;;;;;;;;;5121362;27;20054;-60
2023/09/11 13:51:17;;;;;;;8.50;6.70;;;;;;;;;;5121598;27;20540;-58
2023/09/11 13:53:44;;;;;;;13.25;8.15;;;;;;;;;;5117452;27;20429;-56
2023/09/11 13:56:10;;;;;;;9.93;7.30;;;;;;;;;;5121673;27;20044;-58
2023/09/11 13:58:37;;;;;;;10.70;7.00;;;;;;;;;;5121372;27;20540;-57
2023/09/11 14:01:05;;;;;;;13.40;8.05;;;;;;;;;;5120936;27;20362;-58
2023/09/11 14:03:32;;;;;;;12.07;7.43;;;;;;;;;;5121982;27;20059;-58
2023/09/11 14:05:59;;;;;;;12.23;8.70;;;;;;;;;;5120641;27;20055;-57
2023/09/11 14:08:25;;;;;;;15.52;8.68;;;;;;;;;;5119738;27;20459;-57
2023/09/11 14:10:52;;;;;;;12.05;7.90;;;;;;;;;;5120882;27;20083;-57
2023/09/11 14:13:20;;;;;;;19.13;9.07;;;;;;;;;;5123926;27;20083;-59
2023/09/11 14:15:47;;;;;;;16.52;10.55;;;;;;;;;;5111359;27;20051;-57
2023/09/11 14:18:13;;;;;;;14.05;9.95;;;;;;;;;;5125010;27;20054;-58
2023/09/11 14:20:40;;;;;;;10.75;7.80;;;;;;;;;;5123430;27;20502;-57
2023/09/11 14:23:06;;;;;;;15.95;9.73;;;;;;;;;;5130599;27;20494;-57
2023/09/11 14:25:32;;;;;;;18.98;9.48;;;;;;;;;;5124089;27;20052;-57
2023/09/11 14:27:59;;;;;;;12.30;9.55;;;;;;;;;;5122067;27;20044;-58